Terminal Aerodrome Forecast
Issued by NWS Jacksonville, FL

Home | Current Version | Previous Version | Text Only | Print | Product List | Glossary On
Versions: 1 2 3 4 5 6 7 8 9 10 11 12 13 14 15 16
000
FTUS42 KJAX 160500
TAFSSI
TAF
KSSI 160521Z 1606/1706 VRB04KT P6SM SCT100 BKN200
     FM161600 25007KT P6SM VCSH SCT030 BKN060
     FM161800 18008KT P6SM VCTS SCT030CB BKN060 PROB30 1620/1624 3SM
      TSRA BR BKN030CB
     FM170100 23005KT P6SM VCSH SCT040 BKN100=

USA.gov is the U.S. government's official web portal to all federal, state and local government web resources and services.